Time,TemperatureF,DewpointF,PressureIn,WindDirection,WindDirectionDegrees,WindSpeedMPH,WindSpeedGustMPH,Humidity,HourlyPrecipIn,Conditions,Clouds,dailyrainin,SoftwareType,DateUTC
2013-03-21 00:00:00,-5.4,-11.8,29.96,NNW,334,1.0,1.0,73,0.00,,,0.00,Wunderground v.1.15,2013-03-21 08:00:00,
2013-03-21 00:10:00,-6.1,-13.1,29.96,NNW,337,0.0,0.0,71,0.00,,,0.00,Wunderground v.1.15,2013-03-21 08:10:00,
2013-03-21 00:15:00,-5.6,-12.3,29.97,NNW,337,0.0,2.0,72,0.00,,,0.00,Wunderground v.1.15,2013-03-21 08:15:00,
2013-03-21 00:25:00,-4.3,-10.8,29.97,NNW,337,2.0,2.0,73,0.00,,,0.00,Wunderground v.1.15,2013-03-21 08:25:00,
2013-03-21 00:35:00,-4.6,-12.2,29.96,NNW,337,0.0,1.0,69,0.00,,,0.00,Wunderground v.1.15,2013-03-21 08:35:00,
2013-03-21 00:40:00,-4.6,-11.3,29.96,NNW,337,0.0,1.0,72,0.00,,,0.00,Wunderground v.1.15,2013-03-21 08:40:00,
2013-03-21 00:50:00,-5.2,-13.4,29.97,NNW,337,1.0,1.0,67,0.00,,,0.00,Wunderground v.1.15,2013-03-21 08:50:00,
2013-03-21 01:00:00,-7.0,-14.5,29.96,NNW,337,0.0,0.0,69,0.00,,,0.00,Wunderground v.1.15,2013-03-21 09:00:00,
2013-03-21 01:05:00,-7.2,-14.7,29.96,NNW,337,0.0,0.0,69,0.00,,,0.00,Wunderground v.1.15,2013-03-21 09:05:00,
2013-03-21 01:15:00,-7.5,-14.7,29.96,NNW,337,0.0,0.0,70,0.00,,,0.00,Wunderground v.1.15,2013-03-21 09:15:00,
2013-03-21 01:25:00,-8.9,-16.3,29.96,NW,323,0.0,0.0,69,0.00,,,0.00,Wunderground v.1.15,2013-03-21 09:25:00,
2013-03-21 01:30:00,-9.3,-15.9,29.96,NW,323,0.0,0.0,72,0.00,,,0.00,Wunderground v.1.15,2013-03-21 09:30:00,
2013-03-21 01:40:00,-10.7,-18.1,29.96,NW,324,0.0,0.0,69,0.00,,,0.00,Wunderground v.1.15,2013-03-21 09:40:00,
2013-03-21 01:50:00,-11.7,-18.5,29.96,NW,324,0.0,0.0,71,0.00,,,0.00,Wunderground v.1.15,2013-03-21 09:50:00,
2013-03-21 02:00:00,-12.0,-18.5,29.97,NW,324,0.0,0.0,72,0.00,,,0.00,Wunderground v.1.15,2013-03-21 10:00:00,
2013-03-21 02:10:00,-10.0,-16.6,29.97,NW,324,0.0,0.0,72,0.00,,,0.00,Wunderground v.1.15,2013-03-21 10:10:00,
2013-03-21 02:20:00,-9.6,-17.0,29.96,NNW,327,0.0,0.0,69,0.00,,,0.00,Wunderground v.1.15,2013-03-21 10:20:00,
2013-03-21 02:25:00,-9.8,-16.6,29.96,NNW,331,1.0,1.0,71,0.00,,,0.00,Wunderground v.1.15,2013-03-21 10:25:00,
2013-03-21 02:35:00,-10.3,-16.8,29.96,NNW,331,1.0,1.0,72,0.00,,,0.00,Wunderground v.1.15,2013-03-21 10:35:00,
2013-03-21 02:40:00,-10.7,-18.1,29.96,NNW,327,1.0,2.0,69,0.00,,,0.00,Wunderground v.1.15,2013-03-21 10:40:00,
2013-03-21 02:45:00,-11.7,-18.5,29.97,NNW,327,1.0,2.0,71,0.00,,,0.00,Wunderground v.1.15,2013-03-21 10:45:00,
2013-03-21 02:55:00,-12.5,-19.2,29.97,NNW,327,0.0,1.0,71,0.00,,,0.00,Wunderground v.1.15,2013-03-21 10:55:00,
2013-03-21 03:05:00,-12.0,-18.0,29.97,NNW,327,0.0,0.0,74,0.00,,,0.00,Wunderground v.1.15,2013-03-21 11:05:00,
2013-03-21 03:15:00,-12.0,-18.8,29.97,NNW,327,0.0,0.0,71,0.00,,,0.00,Wunderground v.1.15,2013-03-21 11:15:00,
2013-03-21 03:20:00,-12.0,-18.2,29.97,NNW,327,0.0,0.0,73,0.00,,,0.00,Wunderground v.1.15,2013-03-21 11:20:00,
2013-03-21 03:30:00,-13.3,-20.3,29.96,NNW,327,0.0,0.0,70,0.00,,,0.00,Wunderground v.1.15,2013-03-21 11:30:00,
2013-03-21 03:40:00,-14.6,-21.0,29.96,NNW,327,0.0,0.0,72,0.00,,,0.00,Wunderground v.1.15,2013-03-21 11:40:00,
2013-03-21 03:50:00,-14.8,-21.5,29.96,NNW,327,0.0,0.0,71,0.00,,,0.00,Wunderground v.1.15,2013-03-21 11:50:00,
2013-03-21 04:00:00,-14.6,-20.5,29.96,NNW,327,0.0,0.0,74,0.00,,,0.00,Wunderground v.1.15,2013-03-21 12:00:00,
2013-03-21 04:05:00,-14.3,-20.2,29.96,NNW,327,0.0,1.0,74,0.00,,,0.00,Wunderground v.1.15,2013-03-21 12:05:00,
2013-03-21 04:15:00,-14.3,-21.0,29.97,NNW,327,0.0,0.0,71,0.00,,,0.00,Wunderground v.1.15,2013-03-21 12:15:00,
2013-03-21 04:20:00,-15.3,-22.0,29.97,NNW,327,0.0,0.0,71,0.00,,,0.00,Wunderground v.1.15,2013-03-21 12:20:00,
2013-03-21 04:30:00,-15.8,-22.2,29.97,NNW,327,0.0,0.0,72,0.00,,,0.00,Wunderground v.1.15,2013-03-21 12:30:00,
2013-03-21 04:40:00,-15.6,-21.7,29.97,NNW,327,0.0,0.0,73,0.00,,,0.00,Wunderground v.1.15,2013-03-21 12:40:00,
2013-03-21 04:50:00,-16.4,-22.7,29.97,NNW,327,1.0,1.0,72,0.00,,,0.00,Wunderground v.1.15,2013-03-21 12:50:00,
2013-03-21 05:00:00,-16.9,-23.2,29.97,NNW,327,0.0,0.0,72,0.00,,,0.00,Wunderground v.1.15,2013-03-21 13:00:00,
2013-03-21 05:05:00,-17.2,-23.5,29.97,NNW,327,0.0,0.0,72,0.00,,,0.00,Wunderground v.1.15,2013-03-21 13:05:00,
2013-03-21 05:15:00,-17.5,-23.6,29.97,NNW,327,1.0,2.0,73,0.00,,,0.00,Wunderground v.1.15,2013-03-21 13:15:00,
2013-03-21 05:20:00,-15.8,-21.6,29.97,NNW,327,0.0,0.0,74,0.00,,,0.00,Wunderground v.1.15,2013-03-21 13:20:00,
2013-03-21 05:30:00,-15.6,-22.0,29.97,NNW,327,0.0,0.0,72,0.00,,,0.00,Wunderground v.1.15,2013-03-21 13:30:00,
2013-03-21 05:40:00,-14.3,-20.2,29.97,NNW,327,0.0,0.0,74,0.00,,,0.00,Wunderground v.1.15,2013-03-21 13:40:00,
2013-03-21 05:50:00,-15.1,-21.8,29.97,NNW,327,0.0,0.0,71,0.00,,,0.00,Wunderground v.1.15,2013-03-21 13:50:00,
2013-03-21 05:55:00,-15.8,-22.7,29.97,NNW,327,0.0,0.0,70,0.00,,,0.00,Wunderground v.1.15,2013-03-21 13:55:00,
2013-03-21 06:05:00,-16.9,-23.8,29.97,NNW,327,0.0,0.0,70,0.00,,,0.00,Wunderground v.1.15,2013-03-21 14:05:00,
2013-03-21 06:15:00,-16.4,-23.0,29.97,NNW,328,0.0,0.0,71,0.00,,,0.00,Wunderground v.1.15,2013-03-21 14:15:00,
2013-03-21 06:20:00,-16.6,-23.5,29.97,NNW,328,0.0,0.0,70,0.00,,,0.00,Wunderground v.1.15,2013-03-21 14:20:00,
2013-03-21 06:30:00,-16.1,-22.2,29.97,NNW,328,1.0,1.0,73,0.00,,,0.00,Wunderground v.1.15,2013-03-21 14:30:00,
2013-03-21 06:35:00,-14.6,-21.0,29.97,NNW,328,1.0,1.0,72,0.00,,,0.00,Wunderground v.1.15,2013-03-21 14:35:00,
2013-03-21 06:45:00,-16.4,-23.3,29.97,NNW,328,0.0,1.0,70,0.00,,,0.00,Wunderground v.1.15,2013-03-21 14:45:00,
2013-03-21 06:55:00,-16.6,-23.5,29.97,NNW,328,0.0,0.0,70,0.00,,,0.00,Wunderground v.1.15,2013-03-21 14:55:00,
2013-03-21 07:05:00,-16.1,-22.5,29.97,NNW,328,0.0,0.0,72,0.00,,,0.00,Wunderground v.1.15,2013-03-21 15:05:00,
2013-03-21 07:10:00,-14.8,-21.2,29.97,NNW,328,1.0,1.0,72,0.00,,,0.00,Wunderground v.1.15,2013-03-21 15:10:00,
2013-03-21 07:20:00,-14.8,-21.2,29.97,NNW,328,0.0,0.0,72,0.00,,,0.00,Wunderground v.1.15,2013-03-21 15:20:00,
2013-03-21 07:30:00,-14.8,-21.2,29.96,NNW,330,0.0,0.0,72,0.00,,,0.00,Wunderground v.1.15,2013-03-21 15:30:00,
2013-03-21 07:40:00,-14.3,-20.7,29.96,NNW,328,0.0,0.0,72,0.00,,,0.00,Wunderground v.1.15,2013-03-21 15:40:00,
2013-03-21 07:50:00,-14.6,-21.3,29.96,NNW,328,0.0,0.0,71,0.00,,,0.00,Wunderground v.1.15,2013-03-21 15:50:00,
2013-03-21 08:00:00,-15.1,-21.5,29.96,NNW,330,0.0,0.0,72,0.00,,,0.00,Wunderground v.1.15,2013-03-21 16:00:00,
2013-03-21 08:10:00,-13.3,-19.5,29.96,NNW,328,1.0,1.0,73,0.00,,,0.00,Wunderground v.1.15,2013-03-21 16:10:00,
2013-03-21 08:15:00,-13.5,-19.9,29.96,NNW,330,0.0,1.0,72,0.00,,,0.00,Wunderground v.1.15,2013-03-21 16:15:00,
2013-03-21 08:25:00,-11.7,-17.4,29.96,NNW,330,0.0,5.0,75,0.00,,,0.00,Wunderground v.1.15,2013-03-21 16:25:00,
2013-03-21 08:35:00,-8.6,-14.4,29.96,NNW,338,3.0,3.0,75,0.00,,,0.00,Wunderground v.1.15,2013-03-21 16:35:00,
2013-03-21 08:45:00,-9.1,-15.4,29.96,NNW,338,1.0,2.0,73,0.00,,,0.00,Wunderground v.1.15,2013-03-21 16:45:00,
2013-03-21 08:55:00,-11.2,-18.0,29.96,NNW,338,1.0,1.0,71,0.00,,,0.00,Wunderground v.1.15,2013-03-21 16:55:00,
2013-03-21 09:05:00,-12.2,-19.0,29.95,NNW,338,0.0,0.0,71,0.00,,,0.00,Wunderground v.1.15,2013-03-21 17:05:00,
2013-03-21 09:10:00,-12.0,-18.0,29.95,NNW,338,0.0,0.0,74,0.00,,,0.00,Wunderground v.1.15,2013-03-21 17:10:00,
2013-03-21 09:20:00,-8.4,-13.7,29.95,NNW,338,2.0,3.0,77,0.00,,,0.00,Wunderground v.1.15,2013-03-21 17:20:00,
2013-03-21 09:30:00,-6.1,-12.0,29.95,NNW,338,3.0,3.0,75,0.00,,,0.00,Wunderground v.1.15,2013-03-21 17:30:00,
2013-03-21 09:40:00,-5.4,-11.3,29.95,NNW,340,2.0,2.0,75,0.00,,,0.00,Wunderground v.1.15,2013-03-21 17:40:00,
2013-03-21 09:50:00,-5.2,-11.1,29.95,NNW,340,0.0,0.0,75,0.00,,,0.00,Wunderground v.1.15,2013-03-21 17:50:00,
2013-03-21 10:00:00,-4.8,-10.7,29.95,NNW,340,1.0,1.0,75,0.00,,,0.00,Wunderground v.1.15,2013-03-21 18:00:00,
2013-03-21 10:10:00,-4.1,-10.0,29.95,NNW,340,0.0,1.0,75,0.00,,,0.00,Wunderground v.1.15,2013-03-21 18:10:00,
2013-03-21 10:20:00,-3.5,-9.2,29.95,NNW,340,1.0,1.0,76,0.00,,,0.00,Wunderground v.1.15,2013-03-21 18:20:00,
2013-03-21 10:30:00,-2.8,-8.5,29.95,NNW,340,0.0,0.0,76,0.00,,,0.00,Wunderground v.1.15,2013-03-21 18:30:00,
2013-03-21 10:40:00,-2.6,-8.6,29.95,NNW,340,0.0,0.0,75,0.00,,,0.00,Wunderground v.1.15,2013-03-21 18:40:00,
2013-03-21 10:50:00,-2.2,-7.9,29.96,NNW,340,0.0,2.0,76,0.00,,,0.00,Wunderground v.1.15,2013-03-21 18:50:00,
2013-03-21 11:00:00,-1.6,-7.9,29.96,NNW,340,0.0,1.0,74,0.00,,,0.00,Wunderground v.1.15,2013-03-21 19:00:00,
2013-03-21 11:10:00,-1.2,-7.2,29.96,ENE,74,0.0,4.0,75,0.00,,,0.00,Wunderground v.1.15,2013-03-21 19:10:00,
2013-03-21 11:15:00,-1.2,-8.0,29.96,East,81,2.0,4.0,72,0.00,,,0.00,Wunderground v.1.15,2013-03-21 19:15:00,
2013-03-21 11:25:00,-0.8,-8.0,29.96,ENE,71,2.0,4.0,71,0.00,,,0.00,Wunderground v.1.15,2013-03-21 19:25:00,
2013-03-21 11:35:00,-0.2,-7.4,29.96,ENE,59,2.0,3.0,71,0.00,,,0.00,Wunderground v.1.15,2013-03-21 19:35:00,
2013-03-21 11:40:00,-0.2,-7.4,29.96,NE,54,2.0,2.0,71,0.00,,,0.00,Wunderground v.1.15,2013-03-21 19:40:00,
2013-03-21 11:45:00,0.0,-7.2,29.96,NE,56,2.0,2.0,71,0.00,,,0.00,Wunderground v.1.15,2013-03-21 19:45:00,
2013-03-21 11:55:00,0.0,-7.8,29.96,ENE,60,2.0,2.0,69,0.00,,,0.00,Wunderground v.1.15,2013-03-21 19:55:00,
2013-03-21 12:00:00,0.3,-7.5,29.96,NE,53,3.0,3.0,69,0.00,,,0.00,Wunderground v.1.15,2013-03-21 20:00:00,
2013-03-21 12:10:00,1.1,-7.6,29.96,ENE,73,4.0,6.0,66,0.00,,,0.00,Wunderground v.1.15,2013-03-21 20:10:00,
2013-03-21 12:20:00,0.9,-8.1,29.97,East,80,7.0,7.0,65,0.00,,,0.00,Wunderground v.1.15,2013-03-21 20:20:00,
2013-03-21 12:30:00,1.1,-7.6,29.97,ENE,77,6.0,6.0,66,0.00,,,0.00,Wunderground v.1.15,2013-03-21 20:30:00,
2013-03-21 12:40:00,0.9,-8.4,29.97,East,97,5.0,7.0,64,0.00,,,0.00,Wunderground v.1.15,2013-03-21 20:40:00,
2013-03-21 12:50:00,1.1,-8.9,29.97,ESE,119,5.0,8.0,62,0.00,,,0.00,Wunderground v.1.15,2013-03-21 20:50:00,
2013-03-21 13:00:00,0.0,-9.3,29.97,ESE,114,9.0,9.0,64,0.00,,,0.00,Wunderground v.1.15,2013-03-21 21:00:00,
2013-03-21 13:10:00,0.9,-8.4,29.97,ENE,78,7.0,7.0,64,0.00,,,0.00,Wunderground v.1.15,2013-03-21 21:10:00,
2013-03-21 13:15:00,0.7,-9.3,29.97,ESE,112,5.0,7.0,62,0.00,,,0.00,Wunderground v.1.15,2013-03-21 21:15:00,
2013-03-21 13:25:00,1.1,-8.6,29.97,ESE,102,7.0,11.0,63,0.00,,,0.00,Wunderground v.1.15,2013-03-21 21:25:00,
2013-03-21 13:35:00,1.5,-7.9,29.97,ESE,104,7.0,10.0,64,0.00,,,0.00,Wunderground v.1.15,2013-03-21 21:35:00,
2013-03-21 13:45:00,1.3,-8.7,29.97,ESE,112,6.0,6.0,62,0.00,,,0.00,Wunderground v.1.15,2013-03-21 21:45:00,
2013-03-21 13:55:00,1.8,-8.2,29.97,ESE,102,7.0,7.0,62,0.00,,,0.00,Wunderground v.1.15,2013-03-21 21:55:00,
2013-03-21 14:05:00,1.8,-8.6,29.97,ESE,112,8.0,8.0,61,0.00,,,0.00,Wunderground v.1.15,2013-03-21 22:05:00,
2013-03-21 14:15:00,2.0,-8.4,29.97,East,92,8.0,9.0,61,0.00,,,0.00,Wunderground v.1.15,2013-03-21 22:15:00,
2013-03-21 14:25:00,2.4,-8.0,29.97,East,97,8.0,9.0,61,0.00,,,0.00,Wunderground v.1.15,2013-03-21 22:25:00,
2013-03-21 14:34:00,2.2,-8.5,29.97,East,84,8.0,10.0,60,0.00,,,0.00,Wunderground v.1.15,2013-03-21 22:34:00,
2013-03-21 14:40:00,2.4,-8.3,29.97,East,90,7.0,7.0,60,0.00,,,0.00,Wunderground v.1.15,2013-03-21 22:40:00,
2013-03-21 14:50:00,2.4,-8.3,29.97,ESE,102,7.0,7.0,60,0.00,,,0.00,Wunderground v.1.15,2013-03-21 22:50:00,
2013-03-21 14:55:00,2.2,-8.9,29.97,East,92,8.0,10.0,59,0.00,,,0.00,Wunderground v.1.15,2013-03-21 22:55:00,
2013-03-21 15:05:00,3.0,-8.1,29.97,East,91,7.0,8.0,59,0.00,,,0.00,Wunderground v.1.15,2013-03-21 23:05:00,
2013-03-21 15:15:00,3.4,-8.1,29.97,East,92,5.0,7.0,58,0.00,,,0.00,Wunderground v.1.15,2013-03-21 23:15:00,
2013-03-21 15:20:00,3.5,-7.6,29.97,East,95,6.0,6.0,59,0.00,,,0.00,Wunderground v.1.15,2013-03-21 23:20:00,
2013-03-21 15:30:00,3.4,-7.7,29.97,East,94,6.0,10.0,59,0.00,,,0.00,Wunderground v.1.15,2013-03-21 23:30:00,
2013-03-21 15:40:00,2.8,-8.3,29.97,East,97,8.0,8.0,59,0.00,,,0.00,Wunderground v.1.15,2013-03-21 23:40:00,
2013-03-21 15:50:00,3.0,-8.5,29.97,ESE,102,7.0,8.0,58,0.00,,,0.00,Wunderground v.1.15,2013-03-21 23:50:00,
2013-03-21 16:00:00,2.6,-8.5,29.97,ESE,102,8.0,8.0,59,0.00,,,0.00,Wunderground v.1.15,2013-03-22 00:00:00,
2013-03-21 16:10:00,2.0,-8.7,29.97,East,81,8.0,8.0,60,0.00,,,0.00,Wunderground v.1.15,2013-03-22 00:10:00,
2013-03-21 16:20:00,2.0,-8.7,29.97,ESE,108,7.0,7.0,60,0.00,,,0.00,Wunderground v.1.15,2013-03-22 00:20:00,
2013-03-21 16:30:00,2.0,-9.1,29.97,ESE,104,7.0,7.0,59,0.00,,,0.00,Wunderground v.1.15,2013-03-22 00:30:00,
2013-03-21 16:40:00,2.0,-9.1,29.97,ESE,102,8.0,8.0,59,0.00,,,0.00,Wunderground v.1.15,2013-03-22 00:40:00,
2013-03-21 16:50:00,1.8,-8.9,29.97,East,98,8.0,8.0,60,0.00,,,0.00,Wunderground v.1.15,2013-03-22 00:50:00,
2013-03-21 17:00:00,1.5,-9.5,29.97,ESE,108,8.0,12.0,59,0.00,,,0.00,Wunderground v.1.15,2013-03-22 01:00:00,
2013-03-21 17:10:00,1.5,-9.2,29.97,ESE,105,8.0,8.0,60,0.00,,,0.00,Wunderground v.1.15,2013-03-22 01:10:00,
2013-03-21 17:20:00,1.8,-9.2,29.96,ESE,104,8.0,8.0,59,0.00,,,0.00,Wunderground v.1.15,2013-03-22 01:20:00,
2013-03-21 17:30:00,1.8,-9.2,29.96,East,83,7.0,7.0,59,0.00,,,0.00,Wunderground v.1.15,2013-03-22 01:30:00,
2013-03-21 17:40:00,1.7,-9.3,29.96,East,85,8.0,11.0,59,0.00,,,0.00,Wunderground v.1.15,2013-03-22 01:40:00,
2013-03-21 17:50:00,1.7,-9.3,29.95,ESE,107,7.0,7.0,59,0.00,,,0.00,Wunderground v.1.15,2013-03-22 01:50:00,
2013-03-21 18:00:00,1.7,-9.3,29.95,ESE,102,7.0,8.0,59,0.00,,,0.00,Wunderground v.1.15,2013-03-22 02:00:00,
2013-03-21 18:10:00,1.5,-9.5,29.95,East,92,6.0,6.0,59,0.00,,,0.00,Wunderground v.1.15,2013-03-22 02:10:00,
2013-03-21 18:20:00,1.1,-9.6,29.95,East,98,6.0,7.0,60,0.00,,,0.00,Wunderground v.1.15,2013-03-22 02:20:00,
2013-03-21 18:30:00,0.7,-10.0,29.95,East,100,7.0,7.0,60,0.00,,,0.00,Wunderground v.1.15,2013-03-22 02:30:00,
2013-03-21 18:35:00,0.5,-9.8,29.95,East,101,8.0,8.0,61,0.00,,,0.00,Wunderground v.1.15,2013-03-22 02:35:00,
2013-03-21 18:45:00,0.5,-9.8,29.95,East,95,7.0,7.0,61,0.00,,,0.00,Wunderground v.1.15,2013-03-22 02:45:00,
2013-03-21 18:50:00,0.1,-10.5,29.95,East,101,7.0,7.0,60,0.00,,,0.00,Wunderground v.1.15,2013-03-22 02:50:00,
2013-03-21 18:55:00,-0.2,-10.5,29.95,East,97,9.0,11.0,61,0.00,,,0.00,Wunderground v.1.15,2013-03-22 02:55:00,
2013-03-21 19:05:00,-0.6,-10.8,29.95,ESE,115,9.0,12.0,61,0.00,,,0.00,Wunderground v.1.15,2013-03-22 03:05:00,
2013-03-21 19:15:00,-1.0,-10.9,29.95,East,97,9.0,12.0,62,0.00,,,0.00,Wunderground v.1.15,2013-03-22 03:15:00,
2013-03-21 19:25:00,-1.6,-11.5,29.95,East,98,9.0,11.0,62,0.00,,,0.00,Wunderground v.1.15,2013-03-22 03:25:00,
2013-03-21 19:30:00,-1.6,-11.5,29.95,ESE,105,9.0,9.0,62,0.00,,,0.00,Wunderground v.1.15,2013-03-22 03:30:00,
2013-03-21 19:40:00,-2.0,-11.5,29.95,ESE,112,10.0,10.0,63,0.00,,,0.00,Wunderground v.1.15,2013-03-22 03:40:00,
2013-03-21 19:45:00,-1.8,-11.3,29.94,ESE,104,9.0,10.0,63,0.00,,,0.00,Wunderground v.1.15,2013-03-22 03:45:00,
2013-03-21 19:55:00,-2.2,-12.0,29.94,ESE,109,7.0,8.0,62,0.00,,,0.00,Wunderground v.1.15,2013-03-22 03:55:00,
2013-03-21 20:00:00,-2.4,-12.2,29.94,ESE,111,8.0,8.0,62,0.00,,,0.00,Wunderground v.1.15,2013-03-22 04:00:00,
2013-03-21 20:05:00,-2.2,-12.0,29.94,ESE,109,7.0,8.0,62,0.00,,,0.00,Wunderground v.1.15,2013-03-22 04:05:00,
2013-03-21 20:10:00,-2.8,-12.6,29.94,East,92,7.0,9.0,62,0.00,,,0.00,Wunderground v.1.15,2013-03-22 04:10:00,
2013-03-21 20:20:00,-3.5,-13.0,29.95,East,98,9.0,9.0,63,0.00,,,0.00,Wunderground v.1.15,2013-03-22 04:20:00,
2013-03-21 20:25:00,-3.7,-12.8,29.95,ESE,118,8.0,9.0,64,0.00,,,0.00,Wunderground v.1.15,2013-03-22 04:25:00,
2013-03-21 20:30:00,-3.9,-13.3,29.95,SE,124,7.0,7.0,63,0.00,,,0.00,Wunderground v.1.15,2013-03-22 04:30:00,
2013-03-21 20:40:00,-4.6,-13.7,29.95,ESE,108,11.0,11.0,64,0.00,,,0.00,Wunderground v.1.15,2013-03-22 04:40:00,
2013-03-21 20:50:00,-4.6,-14.0,29.95,ESE,118,9.0,9.0,63,0.00,,,0.00,Wunderground v.1.15,2013-03-22 04:50:00,
2013-03-21 21:00:00,-5.6,-14.7,29.96,SE,131,8.0,11.0,64,0.00,,,0.00,Wunderground v.1.15,2013-03-22 05:00:00,
2013-03-21 21:10:00,-6.1,-15.1,29.96,East,101,9.0,11.0,64,0.00,,,0.00,Wunderground v.1.15,2013-03-22 05:10:00,
2013-03-21 21:20:00,-6.5,-15.5,29.96,SE,125,8.0,10.0,64,0.00,,,0.00,Wunderground v.1.15,2013-03-22 05:20:00,
2013-03-21 21:25:00,-7.0,-16.0,29.96,ESE,122,7.0,10.0,64,0.00,,,0.00,Wunderground v.1.15,2013-03-22 05:25:00,
2013-03-21 21:35:00,-7.5,-16.5,29.96,ESE,105,7.0,11.0,64,0.00,,,0.00,Wunderground v.1.15,2013-03-22 05:35:00,
2013-03-21 21:45:00,-7.9,-16.8,29.97,ESE,114,9.0,9.0,64,0.00,,,0.00,Wunderground v.1.15,2013-03-22 05:45:00,
2013-03-21 21:55:00,-7.9,-16.5,29.97,SE,126,7.0,7.0,65,0.00,,,0.00,Wunderground v.1.15,2013-03-22 05:55:00,
2013-03-21 22:00:00,-7.9,-16.8,29.97,ESE,122,7.0,7.0,64,0.00,,,0.00,Wunderground v.1.15,2013-03-22 06:00:00,
2013-03-21 22:10:00,-7.9,-16.8,29.97,ESE,115,9.0,9.0,64,0.00,,,0.00,Wunderground v.1.15,2013-03-22 06:10:00,
2013-03-21 22:20:00,-8.2,-17.1,29.97,SE,124,8.0,8.0,64,0.00,,,0.00,Wunderground v.1.15,2013-03-22 06:20:00,
2013-03-21 22:25:00,-8.2,-17.4,29.97,East,98,7.0,8.0,63,0.00,,,0.00,Wunderground v.1.15,2013-03-22 06:25:00,
2013-03-21 22:35:00,-7.9,-17.2,29.97,East,90,5.0,10.0,63,0.00,,,0.00,Wunderground v.1.15,2013-03-22 06:35:00,
2013-03-21 22:40:00,-7.9,-17.5,29.97,East,90,6.0,7.0,62,0.00,,,0.00,Wunderground v.1.15,2013-03-22 06:40:00,
2013-03-21 22:50:00,-7.7,-17.3,29.97,ENE,57,7.0,7.0,62,0.00,,,0.00,Wunderground v.1.15,2013-03-22 06:50:00,
2013-03-21 23:00:00,-8.6,-17.8,29.97,ESE,122,5.0,7.0,63,0.00,,,0.00,Wunderground v.1.15,2013-03-22 07:00:00,
2013-03-21 23:10:00,-8.9,-18.1,29.97,East,81,5.0,9.0,63,0.00,,,0.00,Wunderground v.1.15,2013-03-22 07:10:00,
2013-03-21 23:20:00,-8.9,-18.1,29.97,ENE,67,6.0,6.0,63,0.00,,,0.00,Wunderground v.1.15,2013-03-22 07:20:00,
2013-03-21 23:30:00,-9.8,-19.0,29.97,East,88,1.0,6.0,63,0.00,,,0.00,Wunderground v.1.15,2013-03-22 07:30:00,
2013-03-21 23:40:00,-9.6,-19.1,29.97,ENE,59,6.0,6.0,62,0.00,,,0.00,Wunderground v.1.15,2013-03-22 07:40:00,
2013-03-21 23:45:00,-11.7,-21.4,29.97,ENE,59,2.0,6.0,61,0.00,,,0.00,Wunderground v.1.15,2013-03-22 07:45:00,
2013-03-21 23:55:00,-13.3,-21.4,29.97,NE,46,1.0,1.0,66,0.00,,,0.00,Wunderground v.1.15,2013-03-22 07:55:00,